Time;durP1;ratioP1;P1;durP2;ratioP2;P2;SDS_P1;SDS_P2;PMS_P1;PMS_P2;Temp;Humidity;BMP_temperature;BMP_pressure;BME280_temperature;BME280_humidity;BME280_pressure;Samples;Min_cycle;Max_cycle;Signal;HPM_P1;HPM_P2
2024/03/09 00:00:42;;;;;;;18.33;11.27;;;;;;;3.91;100.00;91877.88;2094887;28;20028;-85
2024/03/09 00:01:43;;;;;;;15.57;10.40;;;;;;;3.90;100.00;91881.63;2091005;28;20430;-87
2024/03/09 00:02:49;;;;;;;17.17;11.82;;;;;;;4.01;100.00;91884.84;2090285;28;20052;-85
2024/03/09 00:03:50;;;;;;;15.32;10.95;;;;;;;4.02;100.00;91873.88;2090753;28;20048;-83
2024/03/09 00:04:52;;;;;;;17.52;11.35;;;;;;;4.03;100.00;91878.00;2082518;28;20025;-85
2024/03/09 00:05:53;;;;;;;16.75;11.95;;;;;;;3.94;100.00;91877.78;2090274;28;20033;-87
2024/03/09 00:06:53;;;;;;;15.63;10.88;;;;;;;3.88;100.00;91879.41;2096469;28;20461;-86
2024/03/09 00:07:57;;;;;;;16.88;10.65;;;;;;;3.82;100.00;91882.91;2106682;28;20170;-86
2024/03/09 00:08:59;;;;;;;17.23;11.10;;;;;;;3.71;100.00;91878.53;2106680;28;20185;-86
2024/03/09 00:10:00;;;;;;;14.48;10.10;;;;;;;3.65;100.00;91877.53;2098925;28;20485;-86
2024/03/09 00:11:01;;;;;;;16.20;10.95;;;;;;;3.91;100.00;91878.59;2098517;28;20032;-87
2024/03/09 00:12:08;;;;;;;14.43;10.52;;;;;;;3.80;100.00;91883.31;2097536;28;20576;-85
2024/03/09 00:13:10;;;;;;;15.23;10.32;;;;;;;3.90;100.00;91879.00;2095945;28;20115;-84
2024/03/09 00:14:11;;;;;;;15.52;10.32;;;;;;;3.97;100.00;91876.97;2090449;28;20122;-85
2024/03/09 00:15:12;;;;;;;17.42;11.00;;;;;;;4.06;100.00;91883.63;2098408;28;20218;-85
2024/03/09 00:16:14;;;;;;;17.42;10.90;;;;;;;3.98;100.00;91875.09;2109126;28;20078;-87
2024/03/09 00:17:16;;;;;;;13.32;10.13;;;;;;;3.93;100.00;91881.59;2104082;28;20107;-87
2024/03/09 00:18:17;;;;;;;15.38;11.15;;;;;;;3.84;100.00;91880.63;2106608;28;20048;-84
2024/03/09 00:19:20;;;;;;;14.90;11.38;;;;;;;3.84;100.00;91881.34;2098301;28;20025;-86
2024/03/09 00:20:26;;;;;;;13.77;10.07;;;;;;;3.72;100.00;91880.03;2106802;28;20020;-84
2024/03/09 00:21:28;;;;;;;15.38;10.73;;;;;;;3.78;100.00;91885.63;2098694;28;20025;-85
2024/03/09 00:22:28;;;;;;;18.17;10.70;;;;;;;3.80;100.00;91885.94;2098330;28;20059;-83
2024/03/09 00:23:29;;;;;;;16.02;10.90;;;;;;;3.87;100.00;91885.84;2090138;28;20037;-86
2024/03/09 00:24:30;;;;;;;16.35;11.20;;;;;;;3.88;100.00;91878.66;2098274;28;20131;-87
2024/03/09 00:25:31;;;;;;;14.82;10.45;;;;;;;3.97;100.00;91884.16;2106540;28;20024;-86
2024/03/09 00:26:36;;;;;;;14.52;10.80;;;;;;;3.99;100.00;91879.22;2098607;28;20028;-87
2024/03/09 00:27:40;;;;;;;14.65;10.48;;;;;;;3.82;100.00;91886.31;2090432;28;20032;-84
2024/03/09 00:28:41;;;;;;;16.20;10.93;;;;;;;3.91;100.00;91883.16;2090829;28;20031;-85
2024/03/09 00:29:42;;;;;;;15.68;11.05;;;;;;;3.82;100.00;91891.59;2089971;28;20028;-86
2024/03/09 00:30:43;;;;;;;16.90;10.75;;;;;;;3.77;100.00;91879.56;2106452;28;20035;-85
2024/03/09 00:31:44;;;;;;;14.77;10.20;;;;;;;3.73;100.00;91878.13;2098446;28;20021;-87
2024/03/09 00:32:47;;;;;;;16.75;10.60;;;;;;;3.78;100.00;91882.97;2089821;28;20032;-83
2024/03/09 00:33:49;;;;;;;15.73;10.48;;;;;;;3.91;100.00;91880.50;2098393;28;20058;-85
2024/03/09 00:34:50;;;;;;;16.02;10.35;;;;;;;3.99;100.00;91873.94;2090078;28;20035;-83
2024/03/09 00:35:54;;;;;;;16.30;10.65;;;;;;;3.98;100.00;91880.38;2089994;28;20363;-84
2024/03/09 00:36:56;;;;;;;16.23;10.60;;;;;;;3.79;100.00;91879.19;2098884;28;20564;-85
2024/03/09 00:37:58;;;;;;;14.13;10.13;;;;;;;3.81;100.00;91879.50;2106583;28;20023;-86
2024/03/09 00:38:58;;;;;;;14.90;10.65;;;;;;;3.78;100.00;91869.75;2090226;28;20024;-86
2024/03/09 00:39:59;;;;;;;15.65;10.07;;;;;;;3.83;100.00;91871.19;2098132;28;20465;-83
2024/03/09 00:41:01;;;;;;;14.90;10.05;;;;;;;3.97;100.00;91876.25;2098039;28;20481;-85
2024/03/09 00:42:03;;;;;;;14.88;9.95;;;;;;;3.98;100.00;91864.50;2089018;28;20621;-86
2024/03/09 00:43:04;;;;;;;15.52;10.25;;;;;;;3.91;100.00;91865.38;2089698;28;20029;-86
2024/03/09 00:44:05;;;;;;;14.75;10.07;;;;;;;3.98;100.00;91872.44;2098222;28;20023;-85
2024/03/09 00:45:08;;;;;;;16.48;10.65;;;;;;;3.80;100.00;91864.81;2106429;28;20020;-86
2024/03/09 00:46:10;;;;;;;15.25;10.73;;;;;;;3.98;100.00;91867.16;2100166;28;20087;-85
2024/03/09 00:47:11;;;;;;;14.52;9.98;;;;;;;4.06;100.00;91862.50;2097921;28;20051;-83
2024/03/09 00:48:13;;;;;;;14.80;10.00;;;;;;;4.23;100.00;91856.88;2097952;28;20032;-86
2024/03/09 00:49:14;;;;;;;13.65;10.35;;;;;;;4.12;100.00;91861.59;2098312;28;20023;-86
2024/03/09 00:50:16;;;;;;;17.50;11.18;;;;;;;4.03;100.00;91853.47;2100128;28;20059;-84
2024/03/09 00:51:18;;;;;;;13.63;10.57;;;;;;;4.13;100.00;91852.53;2098118;28;20025;-85
2024/03/09 00:52:19;;;;;;;15.25;11.00;;;;;;;4.03;100.00;91858.75;2089570;28;20056;-85
2024/03/09 00:53:22;;;;;;;16.42;10.70;;;;;;;4.12;100.00;91860.88;2089736;28;20123;-85
2024/03/09 00:54:25;;;;;;;14.20;10.30;;;;;;;4.08;100.00;91852.25;2090014;28;20589;-85
2024/03/09 00:55:26;;;;;;;17.65;11.35;;;;;;;3.98;100.00;91857.31;2082277;28;20764;-87
2024/03/09 00:56:29;;;;;;;15.95;10.95;;;;;;;3.90;100.00;91850.66;2089761;28;20070;-85
2024/03/09 00:57:33;;;;;;;17.70;11.43;;;;;;;3.88;100.00;91845.03;2098262;28;20087;-87
2024/03/09 00:58:36;;;;;;;18.40;11.65;;;;;;;3.80;100.00;91846.31;2098349;28;20373;-84
2024/03/09 00:59:37;;;;;;;17.90;11.05;;;;;;;3.82;100.00;91836.09;2101846;28;20140;-85
2024/03/09 01:00:38;;;;;;;16.52;11.88;;;;;;;4.00;100.00;91838.44;2089630;28;20047;-83
2024/03/09 01:01:38;;;;;;;15.13;11.38;;;;;;;4.04;100.00;91828.53;2098061;28;20020;-86
2024/03/09 01:02:43;;;;;;;17.38;12.48;;;;;;;4.08;100.00;91823.16;2097980;28;20145;-86
2024/03/09 01:03:45;;;;;;;20.10;12.35;;;;;;;4.08;100.00;91826.53;2102877;28;20035;-86
2024/03/09 01:04:50;;;;;;;18.55;12.30;;;;;;;4.05;100.00;91822.09;2089894;28;20033;-86
2024/03/09 01:05:52;;;;;;;18.63;11.98;;;;;;;4.07;100.00;91832.25;2083352;28;20017;-85
2024/03/09 01:06:56;;;;;;;18.70;11.75;;;;;;;4.02;100.00;91821.00;2105462;28;20094;-85
2024/03/09 01:07:56;;;;;;;17.15;11.40;;;;;;;4.08;100.00;91812.59;2106028;28;20113;-85
2024/03/09 01:08:58;;;;;;;17.98;12.07;;;;;;;4.05;100.00;91816.81;2089830;28;20489;-87
2024/03/09 01:09:59;;;;;;;16.60;12.88;;;;;;;4.09;100.00;91808.81;2089872;28;20025;-83
2024/03/09 01:11:00;;;;;;;16.08;11.73;;;;;;;4.12;100.00;91808.72;2089578;28;20033;-86
2024/03/09 01:12:02;;;;;;;16.13;11.48;;;;;;;4.18;100.00;91812.41;2091171;28;20025;-86
2024/03/09 01:13:05;;;;;;;16.80;11.80;;;;;;;4.06;100.00;91820.19;2090056;28;20025;-86
2024/03/09 01:14:06;;;;;;;16.77;11.40;;;;;;;4.17;100.00;91818.06;2093244;28;20024;-85
2024/03/09 01:15:09;;;;;;;17.70;11.98;;;;;;;4.17;100.00;91815.44;2092557;28;20025;-85
2024/03/09 01:16:11;;;;;;;17.17;11.40;;;;;;;4.28;100.00;91819.38;2100436;28;20052;-85
2024/03/09 01:17:13;;;;;;;15.60;10.35;;;;;;;4.06;100.00;91820.19;2106077;28;20036;-85
2024/03/09 01:18:14;;;;;;;13.60;9.82;;;;;;;3.87;100.00;91819.03;2089603;28;20027;-85
2024/03/09 01:19:15;;;;;;;14.95;10.32;;;;;;;3.85;100.00;91822.06;2083896;28;20048;-86
2024/03/09 01:20:16;;;;;;;17.13;11.35;;;;;;;3.95;100.00;91810.56;2089756;28;20112;-83
2024/03/09 01:21:21;;;;;;;13.60;10.63;;;;;;;4.09;100.00;91825.41;2098839;28;20028;-85
2024/03/09 01:22:22;;;;;;;16.63;10.55;;;;;;;3.95;100.00;91836.22;2105966;28;20050;-84
2024/03/09 01:23:23;;;;;;;16.88;11.02;;;;;;;3.97;100.00;91837.31;2106192;28;20441;-84
2024/03/09 01:24:24;;;;;;;16.45;11.05;;;;;;;4.01;100.00;91832.72;2089457;28;20058;-86
2024/03/09 01:25:26;;;;;;;15.90;11.45;;;;;;;3.98;100.00;91835.44;2097792;28;20028;-86
2024/03/09 01:26:27;;;;;;;17.35;12.57;;;;;;;4.02;100.00;91834.22;2097824;28;20028;-86
2024/03/09 01:27:28;;;;;;;17.50;12.73;;;;;;;4.08;100.00;91826.53;2097655;28;20145;-84
2024/03/09 01:28:29;;;;;;;21.85;13.20;;;;;;;4.21;100.00;91827.44;2096670;28;20381;-85
2024/03/09 01:29:30;;;;;;;18.15;12.50;;;;;;;4.24;100.00;91829.28;2097681;28;20024;-86
2024/03/09 01:30:34;;;;;;;16.90;12.27;;;;;;;4.25;100.00;91822.09;2097797;28;20103;-85
2024/03/09 01:31:36;;;;;;;17.13;11.98;;;;;;;4.30;100.00;91821.59;2098371;28;20355;-85
2024/03/09 01:32:40;;;;;;;19.00;12.27;;;;;;;4.26;100.00;91821.69;2089888;28;20035;-84
2024/03/09 01:33:40;;;;;;;17.98;12.40;;;;;;;4.30;100.00;91816.31;2090107;28;20033;-83
2024/03/09 01:34:42;;;;;;;20.13;12.60;;;;;;;4.21;100.00;91821.41;2097871;28;20037;-88
2024/03/09 01:35:43;;;;;;;17.15;11.98;;;;;;;4.21;100.00;91811.56;2097633;28;20518;-84
2024/03/09 01:36:44;;;;;;;20.27;12.80;;;;;;;4.17;100.00;91816.19;2089569;28;20017;-85
2024/03/09 01:37:45;;;;;;;16.17;11.95;;;;;;;4.13;100.00;91814.78;2097596;28;20020;-84
2024/03/09 01:38:48;;;;;;;16.85;11.45;;;;;;;4.04;100.00;91815.31;2089454;28;20058;-84
2024/03/09 01:39:50;;;;;;;14.07;11.00;;;;;;;3.94;100.00;91810.94;2090067;28;20111;-84
2024/03/09 01:40:51;;;;;;;16.38;10.60;;;;;;;4.11;100.00;91807.22;2097785;28;20052;-84
2024/03/09 01:41:52;;;;;;;15.65;10.82;;;;;;;4.21;100.00;91802.88;2097842;28;20672;-85
2024/03/09 01:42:54;;;;;;;17.83;11.63;;;;;;;4.24;100.00;91786.97;2089262;28;20029;-87
2024/03/09 01:43:58;;;;;;;15.05;10.95;;;;;;;4.24;100.00;91788.88;2089434;28;20036;-85
2024/03/09 01:44:59;;;;;;;15.65;11.10;;;;;;;4.23;100.00;91784.72;2090233;28;20159;-85
2024/03/09 01:46:02;;;;;;;14.88;11.55;;;;;;;4.15;100.00;91768.25;2097631;28;20046;-85
2024/03/09 01:47:07;;;;;;;17.63;11.82;;;;;;;3.96;100.00;91756.53;2101213;28;20472;-85
2024/03/09 01:48:11;;;;;;;16.40;11.10;;;;;;;4.09;100.00;91755.94;2106288;28;20040;-84
2024/03/09 01:49:12;;;;;;;18.45;12.05;;;;;;;4.19;100.00;91744.38;2106558;28;20083;-84
2024/03/09 01:50:14;;;;;;;15.00;11.65;;;;;;;4.17;100.00;91738.75;2111517;28;20036;-86
2024/03/09 01:51:16;;;;;;;15.05;11.32;;;;;;;4.28;100.00;91734.75;2093154;28;20048;-85
2024/03/09 01:52:17;;;;;;;15.40;11.60;;;;;;;4.29;100.00;91730.19;2100873;28;20087;-87
2024/03/09 01:53:19;;;;;;;21.17;12.35;;;;;;;4.30;100.00;91723.75;2015928;28;20443;-83
2024/03/09 01:54:23;;;;;;;16.88;11.85;;;;;;;4.18;100.00;91727.78;2015462;28;20504;-83
2024/03/09 01:55:25;;;;;;;14.38;11.40;;;;;;;4.34;100.00;91736.91;2019607;28;20039;-86
2024/03/09 01:56:28;;;;;;;15.88;11.25;;;;;;;4.34;100.00;91732.34;2005806;28;23718;-84
2024/03/09 01:57:29;;;;;;;20.45;12.30;;;;;;;4.38;100.00;91733.03;2027946;28;20032;-83
2024/03/09 01:58:31;;;;;;;16.60;11.63;;;;;;;4.45;100.00;91734.78;2039098;28;20055;-85
2024/03/09 01:59:32;;;;;;;19.45;13.07;;;;;;;4.39;100.00;91739.81;2028532;28;20035;-84
2024/03/09 02:00:36;;;;;;;16.80;11.43;;;;;;;4.31;100.00;91729.81;2032893;28;20028;-85
2024/03/09 02:01:38;;;;;;;17.33;12.50;;;;;;;4.23;100.00;91732.59;2036229;28;20025;-83
2024/03/09 02:02:39;;;;;;;14.73;10.68;;;;;;;4.29;100.00;91727.53;2053258;28;20122;-84
2024/03/09 02:03:40;;;;;;;16.35;11.63;;;;;;;4.43;100.00;91726.50;2068747;28;20028;-85
2024/03/09 02:04:44;;;;;;;15.27;11.48;;;;;;;4.45;100.00;91735.53;2074357;28;20381;-88
2024/03/09 02:05:46;;;;;;;16.90;11.85;;;;;;;4.42;100.00;91723.09;2076214;28;20036;-84
2024/03/09 02:06:47;;;;;;;15.48;11.07;;;;;;;4.43;100.00;91721.94;2082229;28;20192;-86
2024/03/09 02:07:48;;;;;;;17.02;11.50;;;;;;;4.42;100.00;91717.81;2081230;28;20025;-86
2024/03/09 02:08:51;;;;;;;15.32;11.38;;;;;;;4.33;100.00;91722.19;2088340;28;20032;-88
2024/03/09 02:09:53;;;;;;;17.92;11.32;;;;;;;4.33;100.00;91715.00;2089676;28;20059;-84
2024/03/09 02:10:54;;;;;;;15.07;10.80;;;;;;;4.31;100.00;91712.03;2089384;28;20036;-85
2024/03/09 02:12:02;;;;;;;14.43;11.27;;;;;;;4.23;100.00;91713.31;2087009;28;20025;-84
2024/03/09 02:13:03;;;;;;;16.15;11.40;;;;;;;4.20;100.00;91716.78;2090396;28;20482;-84
2024/03/09 02:14:07;;;;;;;17.27;11.70;;;;;;;4.11;100.00;91721.88;2105779;28;20118;-85
2024/03/09 02:15:12;;;;;;;17.15;11.27;;;;;;;4.10;100.00;91721.13;2092387;28;20461;-85
2024/03/09 02:16:13;;;;;;;16.90;11.35;;;;;;;4.08;100.00;91712.84;2081641;28;20033;-86
2024/03/09 02:17:14;;;;;;;18.45;11.60;;;;;;;4.09;100.00;91721.56;1942115;28;23377;-82
2024/03/09 02:18:20;;;;;;;16.10;11.13;;;;;;;4.08;100.00;91712.13;2063059;28;20024;-85
2024/03/09 02:19:21;;;;;;;16.42;11.48;;;;;;;4.12;100.00;91716.19;1966172;28;23973;-84
2024/03/09 02:20:25;;;;;;;15.55;10.82;;;;;;;4.24;100.00;91726.13;2032046;28;20043;-85
2024/03/09 02:21:27;;;;;;;14.80;11.25;;;;;;;4.22;100.00;91717.13;2031761;28;22318;-84
2024/03/09 02:22:28;;;;;;;15.38;11.18;;;;;;;4.20;100.00;91720.16;1998718;28;20116;-84
2024/03/09 02:23:32;;;;;;;15.48;10.88;;;;;;;4.31;100.00;91725.25;2072809;28;20111;-85
2024/03/09 02:24:38;;;;;;;14.88;10.45;;;;;;;4.38;100.00;91713.75;2067709;28;20104;-84
2024/03/09 02:27:06;;;;;;;;;;;;;;;3.21;100.00;91717.50;2136740;27;20118;-85
2024/03/09 02:28:07;;;;;;;15.70;10.50;;;;;;;3.30;100.00;91707.16;2114801;27;20372;-86
2024/03/09 02:29:11;;;;;;;15.45;10.57;;;;;;;3.31;100.00;91718.47;2094519;27;20032;-87
2024/03/09 02:30:13;;;;;;;15.77;11.20;;;;;;;3.30;100.00;91715.09;2099207;27;20118;-85
2024/03/09 02:31:16;;;;;;;15.52;10.90;;;;;;;3.26;100.00;91703.84;2101623;27;20090;-86
2024/03/09 02:32:17;;;;;;;16.27;11.30;;;;;;;3.35;100.00;91706.69;2075927;27;20028;-86
2024/03/09 02:33:18;;;;;;;18.98;11.40;;;;;;;3.33;100.00;91705.59;2070942;28;20032;-86
2024/03/09 02:34:19;;;;;;;15.40;10.73;;;;;;;3.27;100.00;91695.50;2080400;28;20534;-85
2024/03/09 02:35:20;;;;;;;14.20;10.55;;;;;;;3.21;100.00;91697.13;1933894;28;20182;-84
2024/03/09 02:36:32;;;;;;;13.93;10.45;;;;;;;3.32;100.00;91701.47;1949921;27;20079;-86
2024/03/09 02:37:34;;;;;;;14.23;10.00;;;;;;;3.35;100.00;91700.66;1958155;28;20034;-86
2024/03/09 02:38:35;;;;;;;13.15;10.32;;;;;;;3.40;100.00;91697.56;1854811;28;20039;-85
2024/03/09 02:39:36;;;;;;;13.27;10.23;;;;;;;3.26;100.00;91691.38;1919273;28;21724;-86
2024/03/09 02:40:37;;;;;;;15.07;11.02;;;;;;;3.27;100.00;91694.75;1950937;28;20035;-85
2024/03/09 02:41:38;;;;;;;13.80;9.85;;;;;;;3.28;100.00;91691.72;1881355;27;20035;-87
2024/03/09 02:44:02;;;;;;;14.73;9.73;;;;;;;3.28;100.00;91681.16;1853517;27;21517;-85
2024/03/09 02:45:03;;;;;;;14.75;10.55;;;;;;;3.29;100.00;91676.59;1832510;28;21805;-87
2024/03/09 02:46:05;;;;;;;14.30;10.27;;;;;;;3.26;100.00;91677.44;1834771;28;20036;-84
2024/03/09 02:47:10;;;;;;;15.52;10.45;;;;;;;3.24;100.00;91675.19;2079738;28;20078;-85
2024/03/09 02:48:11;;;;;;;13.82;9.75;;;;;;;3.17;100.00;91674.59;2083953;27;20032;-85
2024/03/09 02:49:12;;;;;;;13.20;10.40;;;;;;;3.13;100.00;91671.25;2085968;27;20110;-87
2024/03/09 02:50:13;;;;;;;13.95;10.00;;;;;;;3.33;100.00;91666.00;2032010;28;20029;-84
2024/03/09 02:51:16;;;;;;;12.85;9.63;;;;;;;3.33;100.00;91674.66;2037185;28;20412;-86
2024/03/09 02:52:20;;;;;;;12.25;9.70;;;;;;;3.25;100.00;91668.78;2037974;28;20025;-86
2024/03/09 02:53:21;;;;;;;12.88;9.75;;;;;;;3.18;100.00;91665.50;2051406;27;22622;-85
2024/03/09 02:54:23;;;;;;;12.50;9.57;;;;;;;3.13;100.00;91674.63;2065273;28;20062;-86
2024/03/09 02:55:24;;;;;;;14.38;9.80;;;;;;;3.07;100.00;91663.03;2076100;27;20031;-85
2024/03/09 02:56:25;;;;;;;13.40;9.88;;;;;;;3.04;100.00;91669.13;2057877;28;21103;-88
2024/03/09 02:57:26;;;;;;;15.15;10.07;;;;;;;3.08;100.00;91667.19;2074228;28;20023;-86
2024/03/09 02:58:27;;;;;;;14.50;9.98;;;;;;;3.06;100.00;91664.19;2081268;28;20373;-86
2024/03/09 02:59:28;;;;;;;12.75;9.57;;;;;;;3.09;100.00;91668.66;2076665;28;20024;-85
2024/03/09 03:00:31;;;;;;;13.43;9.43;;;;;;;2.99;100.00;91666.97;2088226;28;20079;-87
2024/03/09 03:01:32;;;;;;;13.48;9.98;;;;;;;3.08;100.00;91671.72;2110031;28;20026;-85
2024/03/09 03:03:59;;;;;;;;;;;;;;;2.94;100.00;91670.03;2119616;27;20015;-86
2024/03/09 03:05:01;;;;;;;13.73;9.43;;;;;;;2.89;100.00;91671.25;2112871;28;20391;-86
2024/03/09 03:06:03;;;;;;;13.95;9.13;;;;;;;2.93;100.00;91679.88;2104675;28;20034;-87
2024/03/09 03:07:04;;;;;;;14.43;9.40;;;;;;;2.93;100.00;91677.22;2104629;28;20718;-85
2024/03/09 03:08:05;;;;;;;13.63;9.82;;;;;;;3.00;100.00;91677.13;2113846;27;20019;-87
2024/03/09 03:09:15;;;;;;;14.70;9.88;;;;;;;2.96;100.00;91678.31;2112742;28;20026;-87
2024/03/09 03:10:17;;;;;;;13.20;9.48;;;;;;;3.02;100.00;91685.38;2114241;28;20062;-85
2024/03/09 03:11:22;;;;;;;15.23;10.35;;;;;;;3.00;100.00;91682.41;2104784;28;20492;-87
2024/03/09 03:12:23;;;;;;;13.02;9.52;;;;;;;2.98;100.00;91679.41;2105341;28;20118;-86
2024/03/09 03:13:24;;;;;;;12.60;8.82;;;;;;;2.92;100.00;91688.19;2121406;27;20190;-86
2024/03/09 03:14:25;;;;;;;14.45;9.70;;;;;;;2.90;100.00;91683.31;2112767;28;20030;-87
2024/03/09 03:15:26;;;;;;;14.55;10.10;;;;;;;2.93;100.00;91684.41;2104434;28;20046;-84
2024/03/09 03:16:31;;;;;;;13.30;10.13;;;;;;;2.92;100.00;91688.94;2096125;28;20615;-85
2024/03/09 03:17:32;;;;;;;12.95;8.85;;;;;;;2.81;100.00;91690.25;2097224;28;20468;-87
2024/03/09 03:18:33;;;;;;;12.52;10.07;;;;;;;2.76;100.00;91686.91;2096080;28;20048;-87
2024/03/09 03:19:34;;;;;;;14.43;10.25;;;;;;;2.87;100.00;91689.41;2107240;27;20028;-84
2024/03/09 03:20:35;;;;;;;13.18;9.77;;;;;;;2.91;100.00;91689.34;2112833;28;20023;-85
2024/03/09 03:21:40;;;;;;;12.68;9.45;;;;;;;2.84;100.00;91695.47;2113352;28;20028;-87
2024/03/09 03:22:41;;;;;;;11.77;9.48;;;;;;;2.80;100.00;91697.41;2121239;28;20043;-85
2024/03/09 03:23:43;;;;;;;14.07;10.00;;;;;;;2.81;100.00;91693.66;2103453;28;20377;-86
2024/03/09 03:24:44;;;;;;;11.38;9.38;;;;;;;2.68;100.00;91690.84;2096357;28;20024;-87
2024/03/09 03:25:45;;;;;;;12.55;9.85;;;;;;;2.60;100.00;91696.63;2097711;28;20751;-88
2024/03/09 03:26:47;;;;;;;11.88;8.98;;;;;;;2.71;100.00;91687.38;2112594;28;20480;-86
2024/03/09 03:27:48;;;;;;;13.10;8.85;;;;;;;2.74;100.00;91689.22;2104218;28;20028;-87
2024/03/09 03:28:50;;;;;;;12.65;9.75;;;;;;;2.68;100.00;91692.72;2099951;28;20035;-87
2024/03/09 03:29:51;;;;;;;12.98;9.30;;;;;;;2.63;100.00;91696.53;2119099;28;20023;-85
2024/03/09 03:30:52;;;;;;;11.90;9.43;;;;;;;2.64;100.00;91695.41;2117307;28;20779;-84
2024/03/09 03:31:56;;;;;;;14.32;10.10;;;;;;;2.66;100.00;91706.31;2112734;28;20027;-86
2024/03/09 03:32:57;;;;;;;11.45;8.73;;;;;;;2.42;100.00;91704.78;2113611;27;20034;-85
2024/03/09 03:34:00;;;;;;;11.75;8.77;;;;;;;2.53;100.00;91703.47;2112517;28;20024;-86
2024/03/09 03:35:01;;;;;;;11.57;8.75;;;;;;;2.56;100.00;91703.84;2113216;27;20024;-86
2024/03/09 03:36:02;;;;;;;13.23;9.02;;;;;;;2.62;100.00;91699.59;2129577;27;20023;-85
2024/03/09 03:37:07;;;;;;;11.35;8.73;;;;;;;2.49;100.00;91707.31;2121706;27;20015;-88
2024/03/09 03:38:10;;;;;;;11.20;8.80;;;;;;;2.50;100.00;91699.00;2125635;27;20023;-87
2024/03/09 03:39:12;;;;;;;11.75;8.95;;;;;;;2.41;100.00;91703.28;2123662;27;20867;-85
2024/03/09 03:40:17;;;;;;;11.05;8.55;;;;;;;2.51;100.00;91703.13;2099175;28;20549;-87
2024/03/09 03:41:22;;;;;;;12.10;8.40;;;;;;;2.48;100.00;91701.28;2099663;28;20021;-85
2024/03/09 03:42:23;;;;;;;9.98;7.63;;;;;;;2.52;100.00;91703.88;2107558;28;20089;-87
2024/03/09 03:43:23;;;;;;;11.38;8.68;;;;;;;2.35;100.00;91703.00;2098805;28;20079;-86
2024/03/09 03:44:29;;;;;;;11.88;8.10;;;;;;;2.35;100.00;91700.34;2107146;28;20456;-85
2024/03/09 03:45:31;;;;;;;9.88;7.80;;;;;;;2.48;100.00;91705.81;2107506;28;20092;-86
2024/03/09 03:46:32;;;;;;;13.73;8.65;;;;;;;2.50;100.00;91699.00;2098833;28;20029;-87
2024/03/09 03:47:33;;;;;;;11.55;8.55;;;;;;;2.45;100.00;91696.81;2098524;28;20386;-85
2024/03/09 03:48:34;;;;;;;10.70;7.97;;;;;;;2.49;100.00;91697.50;2098799;28;20043;-84
2024/03/09 03:49:35;;;;;;;10.52;8.27;;;;;;;2.27;100.00;91699.69;2105292;28;20024;-85
2024/03/09 03:50:36;;;;;;;11.98;8.45;;;;;;;2.20;100.00;91699.06;2106955;28;20051;-85
2024/03/09 03:51:39;;;;;;;10.50;8.60;;;;;;;2.24;100.00;91703.16;2099310;28;20036;-84
2024/03/09 03:52:41;;;;;;;10.32;8.23;;;;;;;2.11;100.00;91710.09;2098797;28;20024;-84
2024/03/09 03:53:43;;;;;;;11.77;8.38;;;;;;;2.19;100.00;91711.47;2104157;28;20058;-85
2024/03/09 03:54:44;;;;;;;11.20;8.75;;;;;;;2.21;100.00;91703.19;2107070;28;20020;-84
2024/03/09 03:55:45;;;;;;;11.20;8.48;;;;;;;2.27;100.00;91712.13;2108520;28;20020;-86
2024/03/09 03:56:46;;;;;;;11.48;8.40;;;;;;;2.30;100.00;91705.34;2090468;28;20486;-87
2024/03/09 03:57:47;;;;;;;10.90;8.43;;;;;;;2.30;100.00;91705.34;2096936;28;20058;-84
2024/03/09 03:58:48;;;;;;;10.23;8.27;;;;;;;2.12;100.00;91705.56;2100614;28;20020;-87
2024/03/09 03:59:49;;;;;;;11.63;8.82;;;;;;;2.09;100.00;91709.00;2100898;28;20704;-85
2024/03/09 04:00:50;;;;;;;11.95;7.97;;;;;;;1.98;100.00;91704.63;2102548;28;20033;-85
2024/03/09 04:01:51;;;;;;;10.77;8.73;;;;;;;2.01;100.00;91703.06;2100285;28;20024;-85
2024/03/09 04:02:53;;;;;;;10.15;8.32;;;;;;;2.10;100.00;91702.56;2098595;28;20078;-87
2024/03/09 04:03:54;;;;;;;10.77;8.20;;;;;;;2.05;100.00;91695.84;2097573;28;20087;-85
2024/03/09 04:04:55;;;;;;;9.68;7.93;;;;;;;2.12;100.00;91701.03;2098457;28;20025;-88
2024/03/09 04:05:56;;;;;;;11.02;8.20;;;;;;;1.98;100.00;91698.59;2098474;28;20079;-85
2024/03/09 04:06:57;;;;;;;11.70;8.25;;;;;;;1.88;100.00;91702.09;2101639;28;20027;-85
2024/03/09 04:07:59;;;;;;;10.82;8.25;;;;;;;1.91;100.00;91707.31;2098210;28;20493;-86
2024/03/09 04:09:00;;;;;;;9.63;7.93;;;;;;;1.90;100.00;91697.94;2098851;28;20084;-87
2024/03/09 04:10:01;;;;;;;10.55;7.80;;;;;;;1.88;100.00;91702.09;2106801;28;20575;-87
2024/03/09 04:11:03;;;;;;;9.63;8.35;;;;;;;1.70;100.00;91704.94;2098651;28;20032;-85
2024/03/09 04:12:04;;;;;;;10.25;8.55;;;;;;;1.65;100.00;91706.13;2098650;28;20611;-86
2024/03/09 04:13:05;;;;;;;12.57;8.10;;;;;;;1.62;100.00;91704.28;2115585;27;20053;-86
2024/03/09 04:14:06;;;;;;;9.00;7.68;;;;;;;1.55;100.00;91703.63;2110373;28;20054;-85
2024/03/09 04:15:09;;;;;;;10.68;7.82;;;;;;;1.57;100.00;91701.34;2090321;28;20040;-86
2024/03/09 04:16:10;;;;;;;11.38;8.18;;;;;;;1.57;100.00;91703.97;2090779;28;20120;-88
2024/03/09 04:17:11;;;;;;;10.20;8.43;;;;;;;1.50;100.00;91705.53;2091279;28;20029;-85
2024/03/09 04:18:13;;;;;;;8.90;7.60;;;;;;;1.53;100.00;91693.47;2098207;28;20564;-87
2024/03/09 04:19:14;;;;;;;11.18;8.15;;;;;;;1.51;100.00;91693.88;2097679;28;20135;-85
2024/03/09 04:20:15;;;;;;;10.95;8.10;;;;;;;1.50;100.00;91697.66;2106451;28;20039;-86
2024/03/09 04:21:18;;;;;;;9.60;7.70;;;;;;;1.37;100.00;91704.56;2109980;27;20498;-87
2024/03/09 04:22:19;;;;;;;10.30;7.57;;;;;;;1.47;100.00;91695.06;2101488;28;20536;-88
2024/03/09 04:23:21;;;;;;;12.23;8.45;;;;;;;1.42;100.00;91690.97;2098334;28;20024;-86
2024/03/09 04:24:22;;;;;;;10.45;7.90;;;;;;;1.35;100.00;91693.66;2107020;28;20048;-86
2024/03/09 04:25:22;;;;;;;10.23;7.50;;;;;;;1.23;100.00;91689.66;2110089;28;20026;-86
2024/03/09 04:26:23;;;;;;;8.98;7.82;;;;;;;1.10;100.00;91696.56;2114587;28;20153;-86
2024/03/09 04:27:25;;;;;;;10.23;7.95;;;;;;;1.05;100.00;91690.97;2106542;28;20376;-86
2024/03/09 04:28:27;;;;;;;9.88;7.68;;;;;;;1.07;100.00;91693.97;2092719;28;20029;-88
2024/03/09 04:29:28;;;;;;;10.77;8.23;;;;;;;1.12;100.00;91694.28;2090074;28;20120;-87
2024/03/09 04:30:33;;;;;;;10.05;7.97;;;;;;;1.16;100.00;91697.63;2103835;28;20442;-89
2024/03/09 04:31:34;;;;;;;10.27;7.25;;;;;;;1.18;100.00;91695.34;2104279;27;20565;-90
2024/03/09 04:32:34;;;;;;;10.80;7.88;;;;;;;1.12;100.00;91693.53;2106529;28;20020;-87
2024/03/09 04:33:35;;;;;;;11.07;8.18;;;;;;;1.24;100.00;91698.31;2098223;28;20036;-87
2024/03/09 04:34:38;;;;;;;10.75;8.32;;;;;;;1.21;100.00;91693.81;2115432;27;20389;-88
2024/03/09 04:35:41;;;;;;;11.35;7.78;;;;;;;1.18;100.00;91691.97;2114976;28;20019;-85
2024/03/09 04:36:45;;;;;;;9.57;7.97;;;;;;;1.21;100.00;91699.81;2106826;28;20493;-85
2024/03/09 04:37:47;;;;;;;10.23;8.00;;;;;;;1.13;100.00;91692.38;2107092;28;20032;-86
2024/03/09 04:38:48;;;;;;;10.52;7.85;;;;;;;0.97;100.00;91693.66;2098517;28;20021;-86
2024/03/09 04:39:49;;;;;;;10.13;8.02;;;;;;;0.88;100.00;91693.38;2098404;28;20025;-87
2024/03/09 04:40:50;;;;;;;10.80;7.93;;;;;;;0.81;100.00;91695.31;2095526;28;20032;-86
2024/03/09 04:41:54;;;;;;;8.85;7.90;;;;;;;0.82;100.00;91688.91;2098289;28;20624;-86
2024/03/09 04:42:55;;;;;;;10.27;7.95;;;;;;;0.75;100.00;91697.63;2098613;28;20024;-85
2024/03/09 04:43:56;;;;;;;10.73;7.70;;;;;;;0.67;100.00;91688.28;2098230;28;20099;-87
2024/03/09 04:44:57;;;;;;;11.13;7.93;;;;;;;0.76;100.00;91693.84;2106529;28;20020;-85
2024/03/09 04:45:58;;;;;;;10.70;7.80;;;;;;;0.76;100.00;91685.97;2097974;28;20032;-86
2024/03/09 04:46:59;;;;;;;9.48;7.65;;;;;;;0.72;100.00;91683.34;2109998;28;20023;-86
2024/03/09 04:48:00;;;;;;;11.18;8.23;;;;;;;0.62;100.00;91686.84;2098098;28;20036;-86
2024/03/09 04:49:03;;;;;;;12.73;8.00;;;;;;;0.63;100.00;91682.31;2106615;28;20044;-86
2024/03/09 04:50:08;;;;;;;10.75;8.02;;;;;;;0.68;100.00;91684.53;2096922;28;20078;-86
2024/03/09 04:51:09;;;;;;;12.25;8.02;;;;;;;0.67;100.00;91683.78;2107518;27;20496;-86